^^
Station Historical Data
Daily Summary for March 10, 2018 Units:  Metric    English   Both
« Previous Day
Next Day »
Daily Weekly Monthly Yearly Custom
  High: Low: Average:
Temperature: -17.8 °C 18.7 °C 23.3 °C
Dew Point: -17.8 °C 4.9 °C 7.1 °C
Humidity: Humidity% 27% 35%
Wind Speed: 0km/h -1609.1km/h -19.6km/h
Wind Gust: 0km/h - -
Wind- -
Pressure: 0 hPa 1001.6 hPa -
Precipitation: 0 mm    
Historical Graphs
 
 
Tabular Data for March 10, 2018
Time Temperature Dew Point Pressure Wind Wind Speed Wind Gust Humidity Rainfall Rate (Hourly) solar Conditions
-17.8 °C -17.8 °C 0 hPa Calm     Humidity% 0 mm SoftwareType W/m2 Conditions
08:11 18.7 °C 7.5 °C 1004.3 hPa North -1609.1 km/h -1607.7 km/h 48% 0 mm meteobridge W/m2
08:17 19.3 °C 8 °C 1004.3 hPa Calm     48% 0 mm meteobridge W/m2
08:23 19.6 °C 8 °C 1004.3 hPa Calm     47% 0 mm meteobridge W/m2
08:30 19.7 °C 8.1 °C 1004.3 hPa Calm     47% 0 mm meteobridge W/m2
08:36 19.7 °C 8.7 °C 1004.3 hPa Calm     49% 0 mm meteobridge W/m2
08:42 19.8 °C 8.2 °C 1004.6 hPa Calm     47% 0 mm meteobridge W/m2
08:48 19.9 °C 8.3 °C 1004.6 hPa SSW 3.2 km/h 4.8 km/h 47% 0 mm meteobridge W/m2
08:54 20.1 °C 8.7 °C 1004.6 hPa SSW 1.4 km/h 6.4 km/h 48% 0 mm meteobridge W/m2
09:00 20.2 °C 8.8 °C 1004.6 hPa SSW 3.2 km/h 8 km/h 48% 0 mm meteobridge W/m2
09:06 20.3 °C 9.2 °C 1004.6 hPa SSE 4.7 km/h 6.4 km/h 49% 0 mm meteobridge W/m2
09:12 20.7 °C 9.6 °C 1004.6 hPa South 9.7 km/h 9.7 km/h 49% 0 mm meteobridge W/m2
09:19 20.7 °C 9.6 °C 1004.6 hPa South 11.1 km/h 11.3 km/h 49% 0 mm meteobridge W/m2
09:25 20.6 °C 8.6 °C 1004.6 hPa SSW 4.7 km/h 6.4 km/h 46% 0 mm meteobridge W/m2
09:31 21 °C 8.9 °C 1004.6 hPa South 4.7 km/h 8 km/h 46% 0 mm meteobridge W/m2
09:37 21.2 °C 8.1 °C 1005 hPa SSW 4.7 km/h 9.7 km/h 43% 0 mm meteobridge W/m2
09:43 21.2 °C 8.1 °C 1005 hPa South 4.7 km/h 6.4 km/h 43% 0 mm meteobridge W/m2
09:49 21.5 °C 8.4 °C 1005 hPa SSW 1.4 km/h 4.8 km/h 43% 0 mm meteobridge W/m2
09:55 21.8 °C 8.3 °C 1005 hPa South 1.4 km/h 3.2 km/h 42% 0 mm meteobridge W/m2
10:02 22 °C 8.5 °C 1005 hPa SSE 1.4 km/h 8 km/h 42% 0 mm meteobridge W/m2
10:08 22.1 °C 7.9 °C 1005 hPa South 1.4 km/h 3.2 km/h 40% 0 mm meteobridge W/m2
10:14 22.5 °C 8.2 °C 1005 hPa South 4.7 km/h 6.4 km/h 40% 0 mm meteobridge W/m2
10:20 22.3 °C 8.8 °C 1004.6 hPa SSE 4.7 km/h 9.7 km/h 42% 0 mm meteobridge W/m2
10:26 22.2 °C 8.3 °C 1004.6 hPa SW 7.9 km/h 8 km/h 41% 0 mm meteobridge W/m2
10:32 22.2 °C 7.6 °C 1004.6 hPa SSW 4.7 km/h 6.4 km/h 39% 0 mm meteobridge W/m2
10:38 22.6 °C 8.3 °C 1004.6 hPa ESE 9.7 km/h 14.5 km/h 40% 0 mm meteobridge W/m2
10:44 22.7 °C 8 °C 1004.6 hPa SSE 4.7 km/h 4.8 km/h 39% 0 mm meteobridge W/m2
10:50 23.1 °C 8.4 °C 1004.6 hPa SSE 7.9 km/h 9.7 km/h 39% 0 mm meteobridge W/m2
10:57 23 °C 7.5 °C 1004.6 hPa NW 9.7 km/h 9.7 km/h 37% 0 mm meteobridge W/m2
11:03 23.5 °C 8 °C 1004.6 hPa SSW 4.7 km/h 6.4 km/h 37% 0 mm meteobridge W/m2
11:09 23.6 °C 8.8 °C 1004.6 hPa SSE 6.4 km/h 17.7 km/h 39% 0 mm meteobridge W/m2
11:15 23.6 °C 8.4 °C 1004.6 hPa SW 7.9 km/h 11.3 km/h 38% 0 mm meteobridge W/m2
11:21 23.8 °C 7.8 °C 1004.6 hPa South 16.3 km/h 20.9 km/h 36% 0 mm meteobridge W/m2
11:27 23.7 °C 7.3 °C 1004.6 hPa South 14.3 km/h 20.9 km/h 35% 0 mm meteobridge W/m2
11:33 23.4 °C 7.5 °C 1004.6 hPa South 9.7 km/h 24.1 km/h 36% 0 mm meteobridge W/m2
11:40 23.7 °C 7.3 °C 1004.3 hPa South 13 km/h 20.9 km/h 35% 0 mm meteobridge W/m2
11:46 23.7 °C 8.1 °C 1004.3 hPa South 6.4 km/h 9.7 km/h 37% 0 mm meteobridge W/m2
11:52 24 °C 8 °C 1004.3 hPa SSE 4.7 km/h 17.7 km/h 36% 0 mm meteobridge W/m2
11:58 24.3 °C 8.3 °C 1003.9 hPa SSW 11.1 km/h 22.5 km/h 36% 0 mm meteobridge W/m2
12:04 24.2 °C 8.6 °C 1003.9 hPa SSE 4.7 km/h 20.9 km/h 37% 0 mm meteobridge W/m2
12:10 24.1 °C 7.3 °C 1003.9 hPa SSW 13 km/h 22.5 km/h 34% 0 mm meteobridge W/m2
12:16 24 °C 8.4 °C 1003.9 hPa SSE 11.1 km/h 20.9 km/h 37% 0 mm meteobridge W/m2
12:23 24.4 °C 8.4 °C 1003.9 hPa SSE 7.9 km/h 22.5 km/h 36% 0 mm meteobridge W/m2
12:29 24.2 °C 7.3 °C 1003.6 hPa SSE 14.3 km/h 19.3 km/h 34% 0 mm meteobridge W/m2
12:35 24.4 °C 7.5 °C 1003.3 hPa SSE 13 km/h 20.9 km/h 34% 0 mm meteobridge W/m2
12:41 24.5 °C 7.6 °C 1003.3 hPa South 7.9 km/h 25.7 km/h 34% 0 mm meteobridge W/m2
12:47 24.4 °C 7.9 °C 1003.3 hPa SSW 6.4 km/h 20.9 km/h 35% 0 mm meteobridge W/m2
12:53 24.5 °C 7.6 °C 1003.3 hPa South 13 km/h 17.7 km/h 34% 0 mm meteobridge W/m2
13:00 25.1 °C 7.7 °C 1003.3 hPa South 9.7 km/h 22.5 km/h 33% 0 mm meteobridge W/m2
13:06 25.2 °C 7.8 °C 1002.9 hPa South 14.3 km/h 22.5 km/h 33% 0 mm meteobridge W/m2
13:12 25.3 °C 7.9 °C 1002.9 hPa SSW 14.3 km/h 20.9 km/h 33% 0 mm meteobridge W/m2
13:18 25.2 °C 6.9 °C 1002.9 hPa ESE 6.4 km/h 14.5 km/h 31% 0 mm meteobridge W/m2
13:24 25.3 °C 7.9 °C 1002.9 hPa SE 6.4 km/h 9.7 km/h 33% 0 mm meteobridge W/m2
13:30 25.2 °C 6.4 °C 1002.9 hPa East 11.1 km/h 22.5 km/h 30% 0 mm meteobridge W/m2
13:36 24.7 °C 6.4 °C 1002.9 hPa East 4.7 km/h 20.9 km/h 31% 0 mm meteobridge W/m2
13:43 25 °C 6.7 °C 1002.6 hPa SSW 4.7 km/h 17.7 km/h 31% 0 mm meteobridge W/m2
13:49 25.3 °C 8.3 °C 1002.6 hPa SSE 7.9 km/h 16.1 km/h 34% 0 mm meteobridge W/m2
13:55 25.5 °C 7.6 °C 1002.6 hPa South 7.9 km/h 11.3 km/h 32% 0 mm meteobridge W/m2
14:01 25.6 °C 7.2 °C 1002.6 hPa South 7.9 km/h 22.5 km/h 31% 0 mm meteobridge W/m2
14:07 25.6 °C 6.7 °C 1002.6 hPa SSW 20.9 km/h 24.1 km/h 30% 0 mm meteobridge W/m2
14:13 25.6 °C 7.2 °C 1002.6 hPa SSE 14.3 km/h 16.1 km/h 31% 0 mm meteobridge W/m2
14:20 25.9 °C 6.5 °C 1002.6 hPa SSE 14.3 km/h 17.7 km/h 29% 0 mm meteobridge W/m2
14:26 25.8 °C 7.9 °C 1002.6 hPa SSE 17.7 km/h 22.5 km/h 32% 0 mm meteobridge W/m2
14:32 25.2 °C 6.4 °C 1002.3 hPa SSE 7.9 km/h 17.7 km/h 30% 0 mm meteobridge W/m2
14:38 25.8 °C 6.4 °C 1002.3 hPa South 16.3 km/h 22.5 km/h 29% 0 mm meteobridge W/m2
14:44 25.9 °C 7 °C 1002.3 hPa South 14.3 km/h 30.6 km/h 30% 0 mm meteobridge W/m2
14:50 25.9 °C 6 °C 1002.3 hPa SSE 7.9 km/h 20.9 km/h 28% 0 mm meteobridge W/m2
14:56 25.5 °C 5.7 °C 1002.3 hPa SSE 7.9 km/h 22.5 km/h 28% 0 mm meteobridge W/m2
15:02 25.6 °C 5.7 °C 1001.9 hPa South 7.9 km/h 24.1 km/h 28% 0 mm meteobridge W/m2
15:09 25.2 °C 4.9 °C 1001.9 hPa SW 17.7 km/h 20.9 km/h 27% 0 mm meteobridge W/m2
15:15 25.3 °C 5 °C 1001.9 hPa South 17.7 km/h 24.1 km/h 27% 0 mm meteobridge W/m2
15:21 25.5 °C 6.2 °C 1001.9 hPa South 11.1 km/h 16.1 km/h 29% 0 mm meteobridge W/m2
15:27 26.2 °C 6.2 °C 1001.9 hPa South 19.5 km/h 25.7 km/h 28% 0 mm meteobridge W/m2
15:33 25.7 °C 6.3 °C 1001.9 hPa SSE 16.3 km/h 29 km/h 29% 0 mm meteobridge W/m2
15:39 25.7 °C 5.3 °C 1001.9 hPa SSW 7.9 km/h 17.7 km/h 27% 0 mm meteobridge W/m2
15:45 25.6 °C 6.7 °C 1001.9 hPa SE 11.1 km/h 24.1 km/h 30% 0 mm meteobridge W/m2
15:51 25.7 °C 5.3 °C 1001.9 hPa South 14.3 km/h 24.1 km/h 27% 0 mm meteobridge W/m2
15:57 25.7 °C 5.8 °C 1001.9 hPa South 14.3 km/h 22.5 km/h 28% 0 mm meteobridge W/m2
16:03 25.6 °C 6.7 °C 1001.9 hPa SSE 9.7 km/h 19.3 km/h 30% 0 mm meteobridge W/m2
16:09 25.7 °C 6.3 °C 1001.9 hPa SSE 4.7 km/h 20.9 km/h 29% 0 mm meteobridge W/m2
16:15 25.9 °C 5.5 °C 1001.9 hPa SSW 9.7 km/h 12.9 km/h 27% 0 mm meteobridge W/m2
16:21 25.7 °C 6.8 °C 1001.9 hPa SSE 16.3 km/h 19.3 km/h 30% 0 mm meteobridge W/m2
16:27 25.8 °C 5.4 °C 1001.9 hPa South 9.7 km/h 22.5 km/h 27% 0 mm meteobridge W/m2
16:33 25.6 °C 6.7 °C 1001.9 hPa SSE 14.3 km/h 20.9 km/h 30% 0 mm meteobridge W/m2
16:39 25.4 °C 6.6 °C 1001.9 hPa SSE 20.9 km/h 20.9 km/h 30% 0 mm meteobridge W/m2
16:45 25.6 °C 5.2 °C 1001.9 hPa SSE 4.7 km/h 16.1 km/h 27% 0 mm meteobridge W/m2
16:51 25.9 °C 6.5 °C 1001.6 hPa SSE 11.1 km/h 25.7 km/h 29% 0 mm meteobridge W/m2
16:58 25.1 °C 6.3 °C 1001.6 hPa SSE 9.7 km/h 16.1 km/h 30% 0 mm meteobridge W/m2
17:04 25.2 °C 6.9 °C 1001.9 hPa South 16.3 km/h 22.5 km/h 31% 0 mm meteobridge W/m2
17:10 25 °C 7.2 °C 1001.6 hPa South 7.9 km/h 9.7 km/h 32% 0 mm meteobridge W/m2
17:16 24.9 °C 6.6 °C 1001.9 hPa South 16.3 km/h 20.9 km/h 31% 0 mm meteobridge W/m2
17:22 23.7 °C 6.9 °C 1001.9 hPa South 14.3 km/h 19.3 km/h 34% 0 mm meteobridge W/m2
17:28 23.8 °C 7 °C 1001.9 hPa SSE 6.4 km/h 17.7 km/h 34% 0 mm meteobridge W/m2
17:34 23.9 °C 6.6 °C 1001.9 hPa South 11.1 km/h 20.9 km/h 33% 0 mm meteobridge W/m2
17:40 23.9 °C 6.6 °C 1001.9 hPa SE 6.4 km/h 20.9 km/h 33% 0 mm meteobridge W/m2
17:46 24 °C 7.6 °C 1001.9 hPa South 9.7 km/h 16.1 km/h 35% 0 mm meteobridge W/m2
17:52 24 °C 6.7 °C 1001.9 hPa SSW 11.1 km/h 14.5 km/h 33% 0 mm meteobridge W/m2
17:58 24.1 °C 7.3 °C 1001.9 hPa SSE 9.7 km/h 20.9 km/h 34% 0 mm meteobridge W/m2
18:04 24.1 °C 6.4 °C 1001.9 hPa South 14.3 km/h 24.1 km/h 32% 0 mm meteobridge W/m2
18:10 23.9 °C 7.1 °C 1001.9 hPa SSE 4.7 km/h 19.3 km/h 34% 0 mm meteobridge W/m2
18:16 23.6 °C 6.8 °C 1002.3 hPa South 19.5 km/h 22.5 km/h 34% 0 mm meteobridge W/m2
18:23 23.2 °C 6.5 °C 1002.3 hPa South 9.7 km/h 19.3 km/h 34% 0 mm meteobridge W/m2
18:29 23.1 °C 6.4 °C 1002.3 hPa SSE 9.7 km/h 16.1 km/h 34% 0 mm meteobridge W/m2
18:35 22.8 °C 6.1 °C 1002.3 hPa South 9.7 km/h 17.7 km/h 34% 0 mm meteobridge W/m2
18:41 22.6 °C 6.4 °C 1002.6 hPa South 27.4 km/h 27.4 km/h 35% 0 mm meteobridge W/m2
18:45 22.4 °C 6.2 °C 1002.3 hPa South 14.3 km/h 17.7 km/h 35% 0 mm meteobridge W/m2
18:51 22.2 °C 6.4 °C 1002.6 hPa South 20.9 km/h 22.5 km/h 36% 0 mm meteobridge W/m2
18:57 21.7 °C 6.8 °C 1002.6 hPa South 9.7 km/h 20.9 km/h 38% 0 mm meteobridge W/m2
19:03 21.7 °C 6.8 °C 1002.6 hPa SSE 14.3 km/h 14.5 km/h 38% 0 mm meteobridge W/m2
19:09 21.7 °C 6.8 °C 1002.6 hPa SSE 14.3 km/h -1607.7 km/h 38% 0 mm meteobridge W/m2
19:16 21.7 °C 6.8 °C 1002.9 hPa North -1609.1 km/h -1607.7 km/h 38% 0 mm meteobridge W/m2
Regenstein, Windhoek, Namibia
Compliments of Weather Underground - 2.5 mb